sensor_id;sensor_type;location;lat;lon;timestamp;noise_LAeq;noise_LA_min;noise_LA_max;noise_LA01;noise_LA95
76217;Laerm;65010;50.190;18.930;2023-04-03T00:01:07;34.25;33.15;37.93;;
76217;Laerm;65010;50.190;18.930;2023-04-03T00:04:13;35.27;33.38;42.87;;
76217;Laerm;65010;50.190;18.930;2023-04-03T00:07:19;36.03;34.70;37.89;;
76217;Laerm;65010;50.190;18.930;2023-04-03T00:10:32;35.88;34.48;37.40;;
76217;Laerm;65010;50.190;18.930;2023-04-03T00:13:39;35.92;34.63;37.34;;
76217;Laerm;65010;50.190;18.930;2023-04-03T00:16:47;35.73;34.47;38.99;;
76217;Laerm;65010;50.190;18.930;2023-04-03T00:19:53;35.81;34.22;37.80;;
76217;Laerm;65010;50.190;18.930;2023-04-03T00:23:00;36.14;34.10;43.11;;
76217;Laerm;65010;50.190;18.930;2023-04-03T00:26:09;34.77;33.24;36.43;;
76217;Laerm;65010;50.190;18.930;2023-04-03T00:29:16;34.69;33.52;35.96;;
76217;Laerm;65010;50.190;18.930;2023-04-03T00:32:22;35.84;33.89;37.98;;
76217;Laerm;65010;50.190;18.930;2023-04-03T00:35:29;35.70;34.26;38.51;;
76217;Laerm;65010;50.190;18.930;2023-04-03T00:38:35;35.76;34.20;37.59;;
76217;Laerm;65010;50.190;18.930;2023-04-03T00:41:45;36.40;34.42;43.90;;
76217;Laerm;65010;50.190;18.930;2023-04-03T00:45:25;35.87;34.58;37.44;;
76217;Laerm;65010;50.190;18.930;2023-04-03T00:48:38;35.64;34.15;38.30;;
76217;Laerm;65010;50.190;18.930;2023-04-03T00:51:46;35.99;34.61;37.86;;
76217;Laerm;65010;50.190;18.930;2023-04-03T00:55:00;36.04;34.65;37.71;;
76217;Laerm;65010;50.190;18.930;2023-04-03T00:58:12;36.71;34.42;47.27;;
76217;Laerm;65010;50.190;18.930;2023-04-03T01:01:25;38.53;34.66;54.22;;
76217;Laerm;65010;50.190;18.930;2023-04-03T01:04:35;35.95;34.53;37.47;;
76217;Laerm;65010;50.190;18.930;2023-04-03T01:07:45;38.89;34.07;54.96;;
76217;Laerm;65010;50.190;18.930;2023-04-03T01:10:51;36.07;33.98;37.57;;
76217;Laerm;65010;50.190;18.930;2023-04-03T01:14:01;35.80;34.71;37.26;;
76217;Laerm;65010;50.190;18.930;2023-04-03T01:17:29;40.51;34.45;59.78;;
76217;Laerm;65010;50.190;18.930;2023-04-03T01:24:34;35.59;34.33;36.89;;
76217;Laerm;65010;50.190;18.930;2023-04-03T01:27:45;35.73;34.29;37.43;;
76217;Laerm;65010;50.190;18.930;2023-04-03T01:31:03;35.86;34.57;39.43;;
76217;Laerm;65010;50.190;18.930;2023-04-03T01:34:18;36.09;34.60;38.35;;
76217;Laerm;65010;50.190;18.930;2023-04-03T01:37:25;36.42;34.20;45.32;;
76217;Laerm;65010;50.190;18.930;2023-04-03T01:40:32;35.55;34.14;36.86;;
76217;Laerm;65010;50.190;18.930;2023-04-03T01:43:39;35.62;34.29;37.78;;
76217;Laerm;65010;50.190;18.930;2023-04-03T01:46:46;35.84;34.34;37.39;;
76217;Laerm;65010;50.190;18.930;2023-04-03T01:49:55;35.88;34.44;37.70;;
76217;Laerm;65010;50.190;18.930;2023-04-03T01:53:02;35.67;34.38;36.94;;
76217;Laerm;65010;50.190;18.930;2023-04-03T01:56:08;35.54;34.18;37.05;;
76217;Laerm;65010;50.190;18.930;2023-04-03T01:59:15;35.79;34.19;37.39;;
76217;Laerm;65010;50.190;18.930;2023-04-03T02:02:22;36.09;34.69;38.70;;
76217;Laerm;65010;50.190;18.930;2023-04-03T02:05:32;36.01;34.38;40.10;;
76217;Laerm;65010;50.190;18.930;2023-04-03T02:08:38;35.61;34.36;38.65;;
76217;Laerm;65010;50.190;18.930;2023-04-03T02:11:45;36.06;34.63;39.84;;
76217;Laerm;65010;50.190;18.930;2023-04-03T02:14:51;35.94;34.56;37.35;;
76217;Laerm;65010;50.190;18.930;2023-04-03T02:17:58;35.93;34.42;37.79;;
76217;Laerm;65010;50.190;18.930;2023-04-03T02:21:12;36.50;34.51;43.53;;
76217;Laerm;65010;50.190;18.930;2023-04-03T02:24:19;35.97;34.48;37.40;;
76217;Laerm;65010;50.190;18.930;2023-04-03T02:27:25;35.74;34.28;37.60;;
76217;Laerm;65010;50.190;18.930;2023-04-03T02:30:31;35.97;34.41;37.79;;
76217;Laerm;65010;50.190;18.930;2023-04-03T02:33:40;36.12;34.83;41.16;;
76217;Laerm;65010;50.190;18.930;2023-04-03T02:36:52;35.41;33.83;43.02;;
76217;Laerm;65010;50.190;18.930;2023-04-03T02:39:59;35.63;33.68;38.14;;
76217;Laerm;65010;50.190;18.930;2023-04-03T02:43:06;35.68;33.48;52.56;;
76217;Laerm;65010;50.190;18.930;2023-04-03T02:46:13;35.45;33.60;38.56;;
76217;Laerm;65010;50.190;18.930;2023-04-03T02:49:20;35.28;33.53;38.94;;
76217;Laerm;65010;50.190;18.930;2023-04-03T02:52:29;35.96;34.07;42.51;;
76217;Laerm;65010;50.190;18.930;2023-04-03T02:55:35;36.28;34.79;38.92;;
76217;Laerm;65010;50.190;18.930;2023-04-03T02:58:43;36.36;34.68;40.46;;
76217;Laerm;65010;50.190;18.930;2023-04-03T03:01:52;36.15;34.43;39.35;;
76217;Laerm;65010;50.190;18.930;2023-04-03T03:04:58;41.32;34.35;62.15;;
76217;Laerm;65010;50.190;18.930;2023-04-03T03:08:08;38.91;34.27;52.18;;
76217;Laerm;65010;50.190;18.930;2023-04-03T03:11:14;36.14;34.68;38.26;;
76217;Laerm;65010;50.190;18.930;2023-04-03T03:14:20;39.25;34.68;57.12;;
76217;Laerm;65010;50.190;18.930;2023-04-03T03:17:26;36.12;34.58;43.89;;
76217;Laerm;65010;50.190;18.930;2023-04-03T03:20:33;36.47;34.79;40.07;;
76217;Laerm;65010;50.190;18.930;2023-04-03T03:23:42;41.67;34.74;60.54;;
76217;Laerm;65010;50.190;18.930;2023-04-03T03:26:49;36.56;34.92;41.68;;
76217;Laerm;65010;50.190;18.930;2023-04-03T03:29:55;36.50;35.04;43.98;;
76217;Laerm;65010;50.190;18.930;2023-04-03T03:33:02;42.27;34.54;59.61;;
76217;Laerm;65010;50.190;18.930;2023-04-03T03:36:09;36.69;34.91;44.94;;
76217;Laerm;65010;50.190;18.930;2023-04-03T03:39:18;45.40;35.32;64.98;;
76217;Laerm;65010;50.190;18.930;2023-04-03T03:42:24;38.34;35.14;48.92;;
76217;Laerm;65010;50.190;18.930;2023-04-03T03:45:31;38.31;35.21;48.28;;
76217;Laerm;65010;50.190;18.930;2023-04-03T03:48:38;41.61;34.88;55.40;;
76217;Laerm;65010;50.190;18.930;2023-04-03T03:51:44;45.37;35.19;63.56;;
76217;Laerm;65010;50.190;18.930;2023-04-03T03:54:53;44.06;35.33;61.70;;
76217;Laerm;65010;50.190;18.930;2023-04-03T03:58:00;45.71;35.32;63.46;;
76217;Laerm;65010;50.190;18.930;2023-04-03T04:01:07;44.47;35.05;62.38;;
76217;Laerm;65010;50.190;18.930;2023-04-03T04:04:22;45.44;35.28;63.63;;
76217;Laerm;65010;50.190;18.930;2023-04-03T04:07:28;41.43;35.57;57.03;;
76217;Laerm;65010;50.190;18.930;2023-04-03T04:10:39;45.74;37.04;64.02;;
76217;Laerm;65010;50.190;18.930;2023-04-03T04:13:48;40.46;36.81;52.28;;
76217;Laerm;65010;50.190;18.930;2023-04-03T04:16:57;45.44;37.58;61.48;;
76217;Laerm;65010;50.190;18.930;2023-04-03T04:20:07;41.30;38.51;48.54;;
76217;Laerm;65010;50.190;18.930;2023-04-03T04:23:16;47.71;38.23;66.12;;
76217;Laerm;65010;50.190;18.930;2023-04-03T04:26:26;46.56;38.81;64.87;;
76217;Laerm;65010;50.190;18.930;2023-04-03T04:29:33;47.73;38.88;64.71;;
76217;Laerm;65010;50.190;18.930;2023-04-03T04:32:42;48.36;38.55;62.57;;
76217;Laerm;65010;50.190;18.930;2023-04-03T04:35:49;45.72;38.64;62.34;;
76217;Laerm;65010;50.190;18.930;2023-04-03T04:38:56;46.29;38.48;63.92;;
76217;Laerm;65010;50.190;18.930;2023-04-03T04:42:07;50.54;38.27;66.06;;
76217;Laerm;65010;50.190;18.930;2023-04-03T04:45:19;43.86;38.31;61.36;;
76217;Laerm;65010;50.190;18.930;2023-04-03T04:48:26;51.04;38.15;66.84;;
76217;Laerm;65010;50.190;18.930;2023-04-03T04:51:35;49.30;38.10;64.06;;
76217;Laerm;65010;50.190;18.930;2023-04-03T04:54:57;44.51;38.29;60.63;;
76217;Laerm;65010;50.190;18.930;2023-04-03T04:58:05;50.10;38.50;67.04;;
76217;Laerm;65010;50.190;18.930;2023-04-03T05:01:12;47.98;38.06;64.02;;
76217;Laerm;65010;50.190;18.930;2023-04-03T05:04:27;50.37;35.56;65.65;;
76217;Laerm;65010;50.190;18.930;2023-04-03T05:07:40;50.67;35.78;66.14;;
76217;Laerm;65010;50.190;18.930;2023-04-03T05:10:47;51.68;37.14;65.84;;
76217;Laerm;65010;50.190;18.930;2023-04-03T05:14:00;46.95;36.77;64.96;;
76217;Laerm;65010;50.190;18.930;2023-04-03T05:17:09;48.89;37.31;67.79;;
76217;Laerm;65010;50.190;18.930;2023-04-03T05:20:20;47.89;37.08;65.17;;
76217;Laerm;65010;50.190;18.930;2023-04-03T05:23:27;49.56;37.82;69.01;;
76217;Laerm;65010;50.190;18.930;2023-04-03T05:26:36;53.17;38.33;78.80;;
76217;Laerm;65010;50.190;18.930;2023-04-03T05:29:46;58.16;38.61;81.46;;
76217;Laerm;65010;50.190;18.930;2023-04-03T05:32:57;48.99;38.52;67.55;;
76217;Laerm;65010;50.190;18.930;2023-04-03T05:36:19;56.26;35.56;78.82;;
76217;Laerm;65010;50.190;18.930;2023-04-03T05:39:31;49.95;34.92;67.12;;
76217;Laerm;65010;50.190;18.930;2023-04-03T05:42:39;49.64;36.05;65.01;;
76217;Laerm;65010;50.190;18.930;2023-04-03T05:45:51;52.24;37.96;68.26;;
76217;Laerm;65010;50.190;18.930;2023-04-03T05:48:59;48.29;37.56;62.46;;
76217;Laerm;65010;50.190;18.930;2023-04-03T05:52:21;52.23;37.88;69.33;;
76217;Laerm;65010;50.190;18.930;2023-04-03T05:55:29;53.54;39.75;69.54;;
76217;Laerm;65010;50.190;18.930;2023-04-03T05:58:35;53.16;38.85;65.52;;
76217;Laerm;65010;50.190;18.930;2023-04-03T06:01:45;51.76;37.37;65.81;;
76217;Laerm;65010;50.190;18.930;2023-04-03T06:04:53;51.17;36.56;67.41;;
76217;Laerm;65010;50.190;18.930;2023-04-03T06:07:59;50.33;38.46;63.45;;
76217;Laerm;65010;50.190;18.930;2023-04-03T06:11:07;48.87;38.48;64.54;;
76217;Laerm;65010;50.190;18.930;2023-04-03T06:14:14;50.83;38.74;66.05;;
76217;Laerm;65010;50.190;18.930;2023-04-03T06:17:23;57.18;38.66;74.96;;
76217;Laerm;65010;50.190;18.930;2023-04-03T06:20:30;49.97;38.77;67.05;;
76217;Laerm;65010;50.190;18.930;2023-04-03T06:23:36;54.24;38.40;80.22;;
76217;Laerm;65010;50.190;18.930;2023-04-03T06:26:43;51.35;38.15;73.73;;
76217;Laerm;65010;50.190;18.930;2023-04-03T06:29:50;51.61;38.41;65.41;;
76217;Laerm;65010;50.190;18.930;2023-04-03T06:32:59;52.06;38.54;66.09;;
76217;Laerm;65010;50.190;18.930;2023-04-03T06:36:07;47.50;38.25;62.52;;
76217;Laerm;65010;50.190;18.930;2023-04-03T06:39:18;50.69;38.62;66.41;;
76217;Laerm;65010;50.190;18.930;2023-04-03T06:42:26;50.10;38.53;65.22;;
76217;Laerm;65010;50.190;18.930;2023-04-03T06:45:43;49.65;37.89;65.91;;
76217;Laerm;65010;50.190;18.930;2023-04-03T06:48:53;50.17;38.69;68.24;;
76217;Laerm;65010;50.190;18.930;2023-04-03T06:51:59;48.04;36.89;64.62;;
76217;Laerm;65010;50.190;18.930;2023-04-03T06:55:07;45.79;36.63;63.57;;
76217;Laerm;65010;50.190;18.930;2023-04-03T06:58:14;48.79;37.21;65.33;;
76217;Laerm;65010;50.190;18.930;2023-04-03T07:01:25;48.89;38.05;67.90;;
76217;Laerm;65010;50.190;18.930;2023-04-03T07:04:34;48.41;38.67;64.11;;
76217;Laerm;65010;50.190;18.930;2023-04-03T07:07:41;45.39;38.78;62.80;;
76217;Laerm;65010;50.190;18.930;2023-04-03T07:10:47;46.22;38.49;61.43;;
76217;Laerm;65010;50.190;18.930;2023-04-03T07:13:54;48.15;38.43;66.84;;
76217;Laerm;65010;50.190;18.930;2023-04-03T07:17:00;48.17;38.57;63.56;;
76217;Laerm;65010;50.190;18.930;2023-04-03T07:20:12;43.39;35.66;61.87;;
76217;Laerm;65010;50.190;18.930;2023-04-03T07:23:19;38.84;35.74;49.31;;
76217;Laerm;65010;50.190;18.930;2023-04-03T07:26:26;47.93;35.52;63.45;;
76217;Laerm;65010;50.190;18.930;2023-04-03T07:29:32;50.60;35.69;66.92;;
76217;Laerm;65010;50.190;18.930;2023-04-03T07:32:38;50.46;37.87;65.63;;
76217;Laerm;65010;50.190;18.930;2023-04-03T07:35:47;47.76;37.66;62.75;;
76217;Laerm;65010;50.190;18.930;2023-04-03T07:38:54;53.04;38.30;73.12;;
76217;Laerm;65010;50.190;18.930;2023-04-03T07:42:01;51.54;37.87;67.27;;
76217;Laerm;65010;50.190;18.930;2023-04-03T07:45:10;49.98;38.89;68.16;;
76217;Laerm;65010;50.190;18.930;2023-04-03T07:48:17;52.11;38.91;66.16;;
76217;Laerm;65010;50.190;18.930;2023-04-03T07:51:27;48.53;38.79;65.75;;
76217;Laerm;65010;50.190;18.930;2023-04-03T07:54:34;48.99;38.11;66.53;;
76217;Laerm;65010;50.190;18.930;2023-04-03T07:57:40;53.74;37.61;72.30;;
76217;Laerm;65010;50.190;18.930;2023-04-03T08:00:47;50.31;37.78;67.32;;
76217;Laerm;65010;50.190;18.930;2023-04-03T08:03:54;48.01;35.17;63.05;;
76217;Laerm;65010;50.190;18.930;2023-04-03T08:07:03;49.75;36.22;77.37;;
76217;Laerm;65010;50.190;18.930;2023-04-03T08:10:10;43.61;36.79;59.77;;
76217;Laerm;65010;50.190;18.930;2023-04-03T08:13:17;46.43;37.76;64.35;;
76217;Laerm;65010;50.190;18.930;2023-04-03T08:16:25;47.25;38.69;63.31;;
76217;Laerm;65010;50.190;18.930;2023-04-03T08:19:32;46.90;38.53;64.39;;
76217;Laerm;65010;50.190;18.930;2023-04-03T08:22:41;52.06;37.24;66.72;;
76217;Laerm;65010;50.190;18.930;2023-04-03T08:25:47;45.95;36.84;64.24;;
76217;Laerm;65010;50.190;18.930;2023-04-03T08:28:54;47.77;36.93;63.32;;
76217;Laerm;65010;50.190;18.930;2023-04-03T08:32:00;53.79;37.19;78.70;;
76217;Laerm;65010;50.190;18.930;2023-04-03T08:35:08;43.11;35.84;60.44;;
76217;Laerm;65010;50.190;18.930;2023-04-03T08:38:17;47.74;35.69;66.48;;
76217;Laerm;65010;50.190;18.930;2023-04-03T08:41:33;48.60;35.62;66.45;;
76217;Laerm;65010;50.190;18.930;2023-04-03T08:44:53;42.99;35.56;59.69;;
76217;Laerm;65010;50.190;18.930;2023-04-03T08:48:08;50.98;36.95;68.60;;
76217;Laerm;65010;50.190;18.930;2023-04-03T08:51:20;48.97;37.54;63.87;;
76217;Laerm;65010;50.190;18.930;2023-04-03T08:54:40;43.80;37.97;60.91;;
76217;Laerm;65010;50.190;18.930;2023-04-03T08:58:00;48.42;38.67;64.96;;
76217;Laerm;65010;50.190;18.930;2023-04-03T09:01:21;45.99;38.77;65.00;;
76217;Laerm;65010;50.190;18.930;2023-04-03T09:04:32;47.35;37.34;63.58;;
76217;Laerm;65010;50.190;18.930;2023-04-03T09:07:45;46.00;36.88;64.67;;
76217;Laerm;65010;50.190;18.930;2023-04-03T09:11:09;49.46;36.96;68.27;;
76217;Laerm;65010;50.190;18.930;2023-04-03T09:14:33;47.17;36.85;62.29;;
76217;Laerm;65010;50.190;18.930;2023-04-03T09:17:56;49.10;36.91;68.61;;
76217;Laerm;65010;50.190;18.930;2023-04-03T09:21:16;50.00;36.32;70.20;;
76217;Laerm;65010;50.190;18.930;2023-04-03T09:24:27;48.05;36.10;64.76;;
76217;Laerm;65010;50.190;18.930;2023-04-03T09:27:37;45.84;35.21;60.38;;
76217;Laerm;65010;50.190;18.930;2023-04-03T09:30:43;49.69;35.41;68.25;;
76217;Laerm;65010;50.190;18.930;2023-04-03T09:33:55;49.29;34.60;71.49;;
76217;Laerm;65010;50.190;18.930;2023-04-03T09:37:04;49.16;35.26;70.03;;
76217;Laerm;65010;50.190;18.930;2023-04-03T09:40:35;48.60;36.61;70.46;;
76217;Laerm;65010;50.190;18.930;2023-04-03T09:43:53;44.66;37.27;61.78;;
76217;Laerm;65010;50.190;18.930;2023-04-03T09:47:19;42.25;37.22;58.41;;
76217;Laerm;65010;50.190;18.930;2023-04-03T09:50:29;48.64;37.10;66.68;;
76217;Laerm;65010;50.190;18.930;2023-04-03T09:53:38;50.23;37.03;68.02;;
76217;Laerm;65010;50.190;18.930;2023-04-03T09:56:50;45.27;35.80;58.92;;
76217;Laerm;65010;50.190;18.930;2023-04-03T10:00:04;46.79;35.87;62.30;;
76217;Laerm;65010;50.190;18.930;2023-04-03T10:03:28;51.47;37.04;66.72;;
76217;Laerm;65010;50.190;18.930;2023-04-03T10:06:40;57.59;45.10;73.67;;
76217;Laerm;65010;50.190;18.930;2023-04-03T10:09:55;54.01;43.25;66.97;;
76217;Laerm;65010;50.190;18.930;2023-04-03T10:13:11;53.87;36.70;67.65;;
76217;Laerm;65010;50.190;18.930;2023-04-03T10:16:35;50.78;37.29;64.41;;
76217;Laerm;65010;50.190;18.930;2023-04-03T10:19:53;43.50;35.07;59.39;;
76217;Laerm;65010;50.190;18.930;2023-04-03T10:23:18;47.47;35.04;65.10;;
76217;Laerm;65010;50.190;18.930;2023-04-03T10:26:41;45.18;35.18;60.22;;
76217;Laerm;65010;50.190;18.930;2023-04-03T10:30:03;46.99;36.78;65.75;;
76217;Laerm;65010;50.190;18.930;2023-04-03T10:33:47;47.21;36.62;62.29;;
76217;Laerm;65010;50.190;18.930;2023-04-03T10:37:12;48.19;37.00;65.40;;
76217;Laerm;65010;50.190;18.930;2023-04-03T10:40:32;46.41;37.77;61.52;;
76217;Laerm;65010;50.190;18.930;2023-04-03T10:43:52;47.80;37.49;70.69;;
76217;Laerm;65010;50.190;18.930;2023-04-03T10:47:14;45.00;37.18;61.41;;
76217;Laerm;65010;50.190;18.930;2023-04-03T10:50:41;50.77;36.79;72.73;;
76217;Laerm;65010;50.190;18.930;2023-04-03T10:54:00;48.14;36.14;64.90;;
76217;Laerm;65010;50.190;18.930;2023-04-03T10:57:12;49.20;36.25;66.72;;
76217;Laerm;65010;50.190;18.930;2023-04-03T11:00:27;45.91;36.94;64.11;;
76217;Laerm;65010;50.190;18.930;2023-04-03T11:03:42;49.87;36.76;67.04;;
76217;Laerm;65010;50.190;18.930;2023-04-03T11:07:02;46.84;36.41;64.77;;
76217;Laerm;65010;50.190;18.930;2023-04-03T11:10:17;48.56;35.82;64.64;;
76217;Laerm;65010;50.190;18.930;2023-04-03T11:13:35;48.44;35.40;69.30;;
76217;Laerm;65010;50.190;18.930;2023-04-03T11:16:49;48.49;35.55;64.09;;
76217;Laerm;65010;50.190;18.930;2023-04-03T11:20:10;47.40;36.22;62.78;;
76217;Laerm;65010;50.190;18.930;2023-04-03T11:23:26;55.03;36.69;79.70;;
76217;Laerm;65010;50.190;18.930;2023-04-03T11:26:54;45.94;36.69;63.35;;
76217;Laerm;65010;50.190;18.930;2023-04-03T11:30:06;47.80;36.92;62.05;;
76217;Laerm;65010;50.190;18.930;2023-04-03T11:33:32;50.13;36.89;67.32;;
76217;Laerm;65010;50.190;18.930;2023-04-03T11:36:48;46.79;36.83;65.23;;
76217;Laerm;65010;50.190;18.930;2023-04-03T11:40:07;45.74;36.68;68.18;;
76217;Laerm;65010;50.190;18.930;2023-04-03T11:43:26;46.13;36.58;64.43;;
76217;Laerm;65010;50.190;18.930;2023-04-03T11:46:54;49.49;36.52;65.08;;
76217;Laerm;65010;50.190;18.930;2023-04-03T11:50:02;47.32;37.00;64.44;;
76217;Laerm;65010;50.190;18.930;2023-04-03T11:53:34;47.94;36.91;65.26;;
76217;Laerm;65010;50.190;18.930;2023-04-03T11:56:42;46.34;35.50;64.32;;
76217;Laerm;65010;50.190;18.930;2023-04-03T11:59:49;44.97;35.62;61.23;;
76217;Laerm;65010;50.190;18.930;2023-04-03T12:02:55;44.11;35.19;60.20;;
76217;Laerm;65010;50.190;18.930;2023-04-03T12:06:50;47.75;35.54;64.53;;
76217;Laerm;65010;50.190;18.930;2023-04-03T12:09:59;47.04;36.47;63.22;;
76217;Laerm;65010;50.190;18.930;2023-04-03T12:13:17;52.66;36.23;78.16;;
76217;Laerm;65010;50.190;18.930;2023-04-03T12:16:28;46.37;36.57;61.78;;
76217;Laerm;65010;50.190;18.930;2023-04-03T12:19:39;48.82;35.91;64.80;;
76217;Laerm;65010;50.190;18.930;2023-04-03T12:23:08;47.66;36.01;64.80;;
76217;Laerm;65010;50.190;18.930;2023-04-03T12:26:38;46.48;36.03;61.10;;
76217;Laerm;65010;50.190;18.930;2023-04-03T12:30:01;48.36;35.76;62.85;;
76217;Laerm;65010;50.190;18.930;2023-04-03T12:33:30;49.50;36.01;66.68;;
76217;Laerm;65010;50.190;18.930;2023-04-03T12:36:58;48.42;35.15;68.66;;
76217;Laerm;65010;50.190;18.930;2023-04-03T12:40:24;48.85;35.13;66.44;;
76217;Laerm;65010;50.190;18.930;2023-04-03T12:44:01;46.81;35.12;65.12;;
76217;Laerm;65010;50.190;18.930;2023-04-03T12:47:28;49.01;35.41;69.69;;
76217;Laerm;65010;50.190;18.930;2023-04-03T12:50:36;48.04;36.72;65.13;;
76217;Laerm;65010;50.190;18.930;2023-04-03T12:53:45;53.43;36.73;77.68;;
76217;Laerm;65010;50.190;18.930;2023-04-03T12:57:10;43.03;36.33;63.01;;
76217;Laerm;65010;50.190;18.930;2023-04-03T13:00:29;45.59;36.78;61.34;;
76217;Laerm;65010;50.190;18.930;2023-04-03T13:03:43;52.18;36.79;72.47;;
76217;Laerm;65010;50.190;18.930;2023-04-03T13:06:51;47.98;36.65;62.01;;
76217;Laerm;65010;50.190;18.930;2023-04-03T13:10:12;48.87;36.51;62.99;;
76217;Laerm;65010;50.190;18.930;2023-04-03T13:13:20;50.72;36.30;68.01;;
76217;Laerm;65010;50.190;18.930;2023-04-03T13:16:27;50.19;35.11;70.09;;
76217;Laerm;65010;50.190;18.930;2023-04-03T13:19:38;50.57;35.51;65.40;;
76217;Laerm;65010;50.190;18.930;2023-04-03T13:22:54;52.01;35.10;67.07;;
76217;Laerm;65010;50.190;18.930;2023-04-03T13:26:04;49.28;35.22;68.60;;
76217;Laerm;65010;50.190;18.930;2023-04-03T13:29:25;49.19;37.03;64.76;;
76217;Laerm;65010;50.190;18.930;2023-04-03T13:32:34;50.61;36.63;65.16;;
76217;Laerm;65010;50.190;18.930;2023-04-03T13:35:44;49.29;36.70;64.65;;
76217;Laerm;65010;50.190;18.930;2023-04-03T13:39:00;47.28;36.85;66.58;;
76217;Laerm;65010;50.190;18.930;2023-04-03T13:42:22;48.79;36.86;62.54;;
76217;Laerm;65010;50.190;18.930;2023-04-03T13:45:32;47.34;36.37;62.75;;
76217;Laerm;65010;50.190;18.930;2023-04-03T13:48:44;50.90;36.65;65.98;;
76217;Laerm;65010;50.190;18.930;2023-04-03T13:51:53;46.64;36.05;67.28;;
76217;Laerm;65010;50.190;18.930;2023-04-03T13:55:22;49.72;34.38;68.67;;
76217;Laerm;65010;50.190;18.930;2023-04-03T13:58:32;47.98;34.69;67.42;;
76217;Laerm;65010;50.190;18.930;2023-04-03T14:01:43;47.10;34.83;63.41;;
76217;Laerm;65010;50.190;18.930;2023-04-03T14:04:55;51.62;34.33;67.37;;
76217;Laerm;65010;50.190;18.930;2023-04-03T14:08:06;51.77;36.73;70.77;;
76217;Laerm;65010;50.190;18.930;2023-04-03T14:11:17;46.98;36.35;65.33;;
76217;Laerm;65010;50.190;18.930;2023-04-03T14:14:29;48.71;36.31;63.39;;
76217;Laerm;65010;50.190;18.930;2023-04-03T14:17:37;50.22;36.81;67.02;;
76217;Laerm;65010;50.190;18.930;2023-04-03T14:20:44;49.77;36.61;68.20;;
76217;Laerm;65010;50.190;18.930;2023-04-03T14:23:53;50.06;36.70;65.68;;
76217;Laerm;65010;50.190;18.930;2023-04-03T14:27:20;47.34;36.49;66.04;;
76217;Laerm;65010;50.190;18.930;2023-04-03T14:30:31;50.34;36.44;67.60;;
76217;Laerm;65010;50.190;18.930;2023-04-03T14:33:39;47.94;36.21;63.44;;
76217;Laerm;65010;50.190;18.930;2023-04-03T14:36:46;46.61;36.40;65.79;;
76217;Laerm;65010;50.190;18.930;2023-04-03T14:39:56;49.34;37.41;69.04;;
76217;Laerm;65010;50.190;18.930;2023-04-03T14:43:05;48.25;35.28;62.82;;
76217;Laerm;65010;50.190;18.930;2023-04-03T14:46:15;47.85;35.12;63.88;;
76217;Laerm;65010;50.190;18.930;2023-04-03T14:49:26;47.27;36.89;64.36;;
76217;Laerm;65010;50.190;18.930;2023-04-03T14:52:35;51.85;36.80;64.01;;
76217;Laerm;65010;50.190;18.930;2023-04-03T14:55:47;44.91;37.07;61.18;;
76217;Laerm;65010;50.190;18.930;2023-04-03T14:58:58;48.67;36.92;62.33;;
76217;Laerm;65010;50.190;18.930;2023-04-03T15:02:27;49.72;37.73;65.85;;
76217;Laerm;65010;50.190;18.930;2023-04-03T15:05:36;45.26;37.35;59.72;;
76217;Laerm;65010;50.190;18.930;2023-04-03T15:08:46;47.56;36.41;65.14;;
76217;Laerm;65010;50.190;18.930;2023-04-03T15:11:56;47.69;36.47;62.82;;
76217;Laerm;65010;50.190;18.930;2023-04-03T15:15:04;45.12;36.43;65.16;;
76217;Laerm;65010;50.190;18.930;2023-04-03T15:18:18;50.41;36.54;66.20;;
76217;Laerm;65010;50.190;18.930;2023-04-03T15:21:26;43.76;36.54;60.76;;
76217;Laerm;65010;50.190;18.930;2023-04-03T15:24:32;50.52;35.61;65.91;;
76217;Laerm;65010;50.190;18.930;2023-04-03T15:27:42;49.13;35.05;63.21;;
76217;Laerm;65010;50.190;18.930;2023-04-03T15:30:48;52.71;35.25;76.27;;
76217;Laerm;65010;50.190;18.930;2023-04-03T15:33:55;45.75;35.10;65.10;;
76217;Laerm;65010;50.190;18.930;2023-04-03T15:37:01;47.38;36.39;63.55;;
76217;Laerm;65010;50.190;18.930;2023-04-03T15:40:10;47.76;36.76;64.44;;
76217;Laerm;65010;50.190;18.930;2023-04-03T15:43:19;49.01;36.77;66.65;;
76217;Laerm;65010;50.190;18.930;2023-04-03T15:46:26;48.65;37.20;63.82;;
76217;Laerm;65010;50.190;18.930;2023-04-03T15:49:33;48.47;37.25;64.97;;
76217;Laerm;65010;50.190;18.930;2023-04-03T15:52:41;48.40;37.72;65.54;;
76217;Laerm;65010;50.190;18.930;2023-04-03T15:55:47;50.90;36.58;62.88;;
76217;Laerm;65010;50.190;18.930;2023-04-03T15:58:56;50.60;36.80;67.59;;
76217;Laerm;65010;50.190;18.930;2023-04-03T16:02:06;49.61;36.03;65.91;;
76217;Laerm;65010;50.190;18.930;2023-04-03T16:05:19;48.06;36.39;62.24;;
76217;Laerm;65010;50.190;18.930;2023-04-03T16:08:25;47.85;36.29;63.23;;
76217;Laerm;65010;50.190;18.930;2023-04-03T16:11:31;43.08;36.53;60.88;;
76217;Laerm;65010;50.190;18.930;2023-04-03T16:14:40;48.93;35.32;64.71;;
76217;Laerm;65010;50.190;18.930;2023-04-03T16:17:47;49.01;35.12;62.27;;
76217;Laerm;65010;50.190;18.930;2023-04-03T16:20:54;47.20;35.38;66.08;;
76217;Laerm;65010;50.190;18.930;2023-04-03T16:24:02;47.22;35.01;63.21;;
76217;Laerm;65010;50.190;18.930;2023-04-03T16:27:08;48.50;36.84;67.00;;
76217;Laerm;65010;50.190;18.930;2023-04-03T16:30:18;42.91;36.95;61.86;;
76217;Laerm;65010;50.190;18.930;2023-04-03T16:33:24;49.73;36.87;72.75;;
76217;Laerm;65010;50.190;18.930;2023-04-03T16:36:31;49.04;36.79;68.00;;
76217;Laerm;65010;50.190;18.930;2023-04-03T16:39:37;48.75;36.87;62.37;;
76217;Laerm;65010;50.190;18.930;2023-04-03T16:42:44;50.08;37.29;64.81;;
76217;Laerm;65010;50.190;18.930;2023-04-03T16:45:52;46.29;35.75;64.09;;
76217;Laerm;65010;50.190;18.930;2023-04-03T16:48:59;48.26;35.90;64.99;;
76217;Laerm;65010;50.190;18.930;2023-04-03T16:52:06;47.01;35.67;62.42;;
76217;Laerm;65010;50.190;18.930;2023-04-03T16:55:12;45.27;35.54;61.82;;
76217;Laerm;65010;50.190;18.930;2023-04-03T16:58:19;47.93;36.16;65.16;;
76217;Laerm;65010;50.190;18.930;2023-04-03T17:01:29;48.11;36.84;63.27;;
76217;Laerm;65010;50.190;18.930;2023-04-03T17:04:35;45.28;35.03;60.86;;
76217;Laerm;65010;50.190;18.930;2023-04-03T17:07:42;45.36;35.13;65.92;;
76217;Laerm;65010;50.190;18.930;2023-04-03T17:10:48;43.11;35.13;61.12;;
76217;Laerm;65010;50.190;18.930;2023-04-03T17:13:57;49.87;35.42;67.22;;
76217;Laerm;65010;50.190;18.930;2023-04-03T17:17:06;44.56;35.53;60.62;;
76217;Laerm;65010;50.190;18.930;2023-04-03T17:20:14;45.43;36.83;63.60;;
76217;Laerm;65010;50.190;18.930;2023-04-03T17:23:20;46.77;37.13;63.32;;
76217;Laerm;65010;50.190;18.930;2023-04-03T17:26:27;45.95;38.17;61.48;;
76217;Laerm;65010;50.190;18.930;2023-04-03T17:29:33;46.27;37.72;65.48;;
76217;Laerm;65010;50.190;18.930;2023-04-03T17:32:43;46.10;37.07;63.34;;
76217;Laerm;65010;50.190;18.930;2023-04-03T17:35:49;45.54;36.56;61.61;;
76217;Laerm;65010;50.190;18.930;2023-04-03T17:38:56;45.98;36.26;62.87;;